Time;durP1;ratioP1;P1;durP2;ratioP2;P2;SDS_P1;SDS_P2;PMS_P1;PMS_P2;Temp;Humidity;BMP_temperature;BMP_pressure;BME280_temperature;BME280_humidity;BME280_pressure;Samples;Min_cycle;Max_cycle;Signal;HPM_P1;HPM_P2
2021/11/18 00:02:25;;;;;;;0.80;0.80;;;;;;;1.48;99.22;99943.28;5072029;28;20479;-65
2021/11/18 00:04:54;;;;;;;1.52;1.00;;;;;;;1.49;99.90;99944.97;5072527;28;20044;-65
2021/11/18 00:07:21;;;;;;;3.60;1.80;;;;;;;1.54;99.47;99948.22;5071958;28;20044;-64
2021/11/18 00:09:48;;;;;;;0.90;0.90;;;;;;;1.48;99.21;99951.81;5072345;28;20040;-65
2021/11/18 00:12:16;;;;;;;1.40;1.00;;;;;;;1.53;99.43;99939.69;5071743;28;20044;-65
2021/11/18 00:14:43;;;;;;;3.05;1.20;;;;;;;1.55;99.64;99934.53;5072348;28;20049;-65
2021/11/18 00:17:10;;;;;;;0.93;0.88;;;;;;;1.53;99.44;99932.00;5071530;28;20063;-65
2021/11/18 00:19:37;;;;;;;0.95;0.82;;;;;;;1.49;99.42;99934.69;5072583;28;20452;-65
2021/11/18 00:22:04;;;;;;;1.88;1.10;;;;;;;1.50;99.50;99926.97;5072129;28;20417;-65
2021/11/18 00:24:31;;;;;;;1.15;1.05;;;;;;;1.47;99.37;99929.66;5071839;28;20049;-65
2021/11/18 00:26:58;;;;;;;1.08;0.98;;;;;;;1.49;99.29;99925.31;5072344;28;20055;-64
2021/11/18 00:29:26;;;;;;;1.90;0.93;;;;;;;1.43;100.00;99925.47;5071993;28;20051;-65
2021/11/18 00:31:53;;;;;;;1.20;1.02;;;;;;;1.44;100.00;99928.88;5072178;28;20051;-65
2021/11/18 00:34:20;;;;;;;1.70;1.30;;;;;;;1.39;100.00;99923.91;5071748;28;20055;-65
2021/11/18 00:36:47;;;;;;;1.10;1.00;;;;;;;1.33;100.00;99920.69;5072015;28;20499;-65
2021/11/18 00:39:15;;;;;;;1.58;1.00;;;;;;;1.36;100.00;99916.28;5071987;28;20070;-65
2021/11/18 00:41:42;;;;;;;1.13;1.02;;;;;;;1.37;100.00;99910.31;5071901;28;20048;-65
2021/11/18 00:44:09;;;;;;;1.30;0.90;;;;;;;1.41;100.00;99904.19;5072197;28;20417;-64
2021/11/18 00:46:38;;;;;;;1.48;1.23;;;;;;;1.40;100.00;99904.25;5071862;28;20138;-65
2021/11/18 00:49:06;;;;;;;0.93;0.90;;;;;;;1.45;100.00;99889.56;5071582;28;20055;-64
2021/11/18 00:51:34;;;;;;;1.88;1.35;;;;;;;1.44;100.00;99888.72;5072075;28;20055;-65
2021/11/18 00:54:04;;;;;;;1.58;1.23;;;;;;;1.47;100.00;99886.06;5071936;28;20048;-65
2021/11/18 00:56:31;;;;;;;2.75;0.90;;;;;;;1.46;99.98;99883.53;5071891;28;20048;-65
2021/11/18 00:58:58;;;;;;;;;;;;;;;1.43;100.00;99879.34;5072353;28;20059;-65
2021/11/18 01:01:26;;;;;;;;;;;;;;;1.40;100.00;99874.31;5071896;28;19920;-65
2021/11/18 01:03:55;;;;;;;1.30;1.05;;;;;;;1.45;100.00;99867.31;5072194;28;19920;-65
2021/11/18 01:06:22;;;;;;;1.48;1.00;;;;;;;1.53;100.00;99867.06;5071687;28;20074;-65
2021/11/18 01:08:49;;;;;;;2.65;1.00;;;;;;;1.51;100.00;99859.41;5071647;28;20048;-65
2021/11/18 01:11:19;;;;;;;2.95;1.20;;;;;;;1.46;100.00;99863.84;5071336;28;20052;-65
2021/11/18 01:13:47;;;;;;;1.65;1.35;;;;;;;1.41;100.00;99858.03;5071442;28;20053;-65
2021/11/18 01:16:18;;;;;;;1.10;1.00;;;;;;;1.41;100.00;99857.22;5071527;28;20048;-65
2021/11/18 01:18:45;;;;;;;2.28;1.30;;;;;;;1.43;100.00;99851.13;5072176;28;20402;-65
2021/11/18 01:21:14;;;;;;;2.88;1.70;;;;;;;1.45;100.00;99854.50;5071589;28;20040;-65
2021/11/18 01:23:43;;;;;;;2.58;1.08;;;;;;;1.45;100.00;99845.97;5071724;28;20048;-65
2021/11/18 01:26:12;;;;;;;1.58;1.00;;;;;;;1.43;100.00;99846.03;5071205;28;20048;-65
2021/11/18 01:28:40;;;;;;;1.92;1.10;;;;;;;1.46;100.00;99845.91;5072925;28;20048;-65
2021/11/18 01:31:08;;;;;;;2.22;1.40;;;;;;;1.42;100.00;99844.34;5075078;28;20414;-65
2021/11/18 01:33:35;;;;;;;;;;;;;;;1.44;100.00;99837.47;5075368;28;20139;-65
2021/11/18 01:36:03;;;;;;;2.45;1.13;;;;;;;1.47;100.00;99828.84;5074928;28;20384;-64
2021/11/18 01:38:32;;;;;;;1.05;0.95;;;;;;;1.48;100.00;99825.38;5074650;28;20565;-65
2021/11/18 01:41:02;;;;;;;2.13;1.10;;;;;;;1.47;100.00;99821.13;5075220;28;20055;-65
2021/11/18 01:43:31;;;;;;;1.63;0.95;;;;;;;1.43;100.00;99817.81;5074584;28;20056;-65
2021/11/18 01:45:59;;;;;;;1.35;0.90;;;;;;;1.45;100.00;99810.91;5075153;28;20055;-65
2021/11/18 01:48:26;;;;;;;2.50;1.17;;;;;;;1.49;100.00;99802.25;5074818;28;20109;-64
2021/11/18 01:50:54;;;;;;;2.30;1.10;;;;;;;1.54;99.75;99809.78;5074851;28;20045;-65
2021/11/18 01:53:27;;;;;;;1.50;1.17;;;;;;;1.48;100.00;99810.81;5074541;28;20059;-65
2021/11/18 01:55:55;;;;;;;4.10;0.93;;;;;;;1.51;100.00;99809.88;5074904;28;20048;-65
2021/11/18 01:58:22;;;;;;;2.10;0.80;;;;;;;1.47;100.00;99804.03;5074317;28;20048;-64
2021/11/18 02:00:53;;;;;;;1.20;1.10;;;;;;;1.52;100.00;99799.59;5074389;28;20090;-65
2021/11/18 02:03:21;;;;;;;2.15;1.20;;;;;;;1.53;100.00;99792.72;5074870;28;20060;-64
2021/11/18 02:05:51;;;;;;;1.15;0.98;;;;;;;1.50;100.00;99785.97;5074845;28;20049;-65
2021/11/18 02:08:19;;;;;;;0.70;0.70;;;;;;;1.46;100.00;99789.50;5074253;28;20142;-65
2021/11/18 02:10:48;;;;;;;1.75;1.00;;;;;;;1.43;100.00;99788.78;5074812;28;20051;-65
2021/11/18 02:13:19;;;;;;;0.88;0.80;;;;;;;1.44;100.00;99786.19;5074396;28;20063;-65
2021/11/18 02:15:49;;;;;;;0.88;0.80;;;;;;;1.39;100.00;99784.63;5074322;28;20049;-65
2021/11/18 02:18:18;;;;;;;0.73;0.73;;;;;;;1.40;100.00;99791.47;5074129;28;20533;-65
2021/11/18 02:20:49;;;;;;;0.95;0.93;;;;;;;1.37;100.00;99776.19;5074660;28;20045;-65
2021/11/18 02:23:18;;;;;;;1.05;1.00;;;;;;;1.40;100.00;99771.78;5074422;28;20040;-65
2021/11/18 02:25:50;;;;;;;0.80;0.80;;;;;;;1.38;100.00;99767.59;5074270;28;20048;-65
2021/11/18 02:28:18;;;;;;;1.10;0.93;;;;;;;1.39;100.00;99759.88;5074143;28;20048;-65
2021/11/18 02:30:48;;;;;;;1.45;0.90;;;;;;;1.38;100.00;99753.06;5074261;28;20079;-64
2021/11/18 02:33:17;;;;;;;1.50;0.98;;;;;;;1.38;100.00;99754.78;5073862;28;20044;-65
2021/11/18 02:35:46;;;;;;;1.83;1.08;;;;;;;1.34;100.00;99756.63;5074320;28;20048;-64
2021/11/18 02:38:14;;;;;;;1.55;1.10;;;;;;;1.37;100.00;99751.38;5074119;28;20045;-64
2021/11/18 02:40:42;;;;;;;2.25;1.00;;;;;;;1.39;100.00;99754.75;5073274;28;20052;-65
2021/11/18 02:43:14;;;;;;;2.03;1.27;;;;;;;1.37;100.00;99751.38;5073727;28;20151;-65
2021/11/18 02:45:43;;;;;;;1.10;1.00;;;;;;;1.43;100.00;99747.78;5073801;28;20053;-65
2021/11/18 02:48:10;;;;;;;1.42;0.90;;;;;;;1.48;100.00;99745.91;5073369;28;20590;-65
2021/11/18 02:50:45;;;;;;;1.88;0.80;;;;;;;1.43;100.00;99738.34;5073572;28;20047;-65
2021/11/18 02:53:14;;;;;;;1.52;1.10;;;;;;;1.40;100.00;99738.47;5073329;28;20490;-65
2021/11/18 02:55:43;;;;;;;1.08;1.00;;;;;;;1.44;100.00;99739.19;5073800;28;20052;-65
2021/11/18 02:58:10;;;;;;;1.35;1.10;;;;;;;1.41;100.00;99734.16;5073560;28;20063;-65
2021/11/18 03:00:42;;;;;;;0.98;0.93;;;;;;;1.48;100.00;99733.06;5073416;28;20500;-65
2021/11/18 03:03:08;;;;;;;0.90;0.90;;;;;;;1.52;100.00;99732.09;5073368;28;20056;-65
2021/11/18 03:05:35;;;;;;;1.02;0.90;;;;;;;1.49;100.00;99729.63;5073443;28;20478;-64
2021/11/18 03:08:02;;;;;;;1.77;1.27;;;;;;;1.48;100.00;99730.50;5073242;28;20052;-64
2021/11/18 03:10:31;;;;;;;;;;;;;;;1.53;100.00;99721.78;5073286;28;20059;-65
2021/11/18 03:12:59;;;;;;;2.35;1.10;;;;;;;1.51;100.00;99725.28;5073113;28;20289;-65
2021/11/18 03:15:26;;;;;;;1.00;0.80;;;;;;;1.58;100.00;99715.66;5072925;28;20055;-65
2021/11/18 03:17:53;;;;;;;2.45;1.27;;;;;;;1.56;100.00;99704.63;5073060;28;20048;-64
2021/11/18 03:20:22;;;;;;;;;;;;;;;1.57;100.00;99703.72;5073566;28;20050;-65
2021/11/18 03:22:49;;;;;;;1.65;1.10;;;;;;;1.50;99.95;99696.25;5073307;28;19931;-65
2021/11/18 03:25:19;;;;;;;1.20;1.10;;;;;;;1.52;100.00;99698.78;5073028;28;20045;-65
2021/11/18 03:27:47;;;;;;;1.30;1.08;;;;;;;1.55;100.00;99690.97;5073264;28;20052;-65
2021/11/18 03:30:22;;;;;;;3.42;1.20;;;;;;;1.58;100.00;99693.41;5072541;28;20479;-65
2021/11/18 03:32:49;;;;;;;3.63;1.30;;;;;;;1.61;100.00;99682.22;5072848;28;20052;-65
2021/11/18 03:35:16;;;;;;;;;;;;;;;1.62;99.62;99681.31;5073326;28;20438;-65
2021/11/18 03:37:43;;;;;;;1.55;0.98;;;;;;;1.59;99.97;99678.88;5073046;28;19928;-65
2021/11/18 03:40:11;;;;;;;2.80;1.10;;;;;;;1.53;99.75;99687.63;5072469;28;20044;-65
2021/11/18 03:42:37;;;;;;;1.98;1.17;;;;;;;1.55;99.82;99672.19;5072539;28;20064;-64
2021/11/18 03:45:09;;;;;;;1.73;1.10;;;;;;;1.55;99.80;99670.47;5072597;28;20055;-65
2021/11/18 03:47:36;;;;;;;2.42;1.10;;;;;;;1.57;100.00;99676.38;5072710;28;20418;-65
2021/11/18 03:50:04;;;;;;;0.80;0.80;;;;;;;1.56;100.00;99673.84;5072705;28;20052;-65
2021/11/18 03:52:31;;;;;;;2.10;1.40;;;;;;;1.56;100.00;99674.69;5071573;28;20135;-64
2021/11/18 03:54:59;;;;;;;1.77;1.10;;;;;;;1.57;100.00;99668.69;5072733;28;20091;-65
2021/11/18 03:57:26;;;;;;;2.08;1.20;;;;;;;1.55;100.00;99667.06;5072428;28;20056;-65
2021/11/18 03:59:53;;;;;;;;;;;;;;;1.55;100.00;99657.63;5072753;28;20053;-65
2021/11/18 04:02:22;;;;;;;1.58;1.13;;;;;;;1.55;100.00;99664.50;5072411;28;19927;-65
2021/11/18 04:04:51;;;;;;;2.67;1.13;;;;;;;1.53;100.00;99659.41;5072536;28;20056;-65
2021/11/18 04:07:18;;;;;;;2.05;1.20;;;;;;;1.51;100.00;99653.50;5072000;28;20057;-65
2021/11/18 04:09:45;;;;;;;3.13;1.20;;;;;;;1.56;100.00;99650.78;5072504;28;20044;-65
2021/11/18 04:12:15;;;;;;;1.80;1.20;;;;;;;1.54;100.00;99645.69;5072032;28;20048;-66
2021/11/18 04:14:42;;;;;;;2.08;1.45;;;;;;;1.55;100.00;99641.44;5072461;28;20064;-65
2021/11/18 04:17:10;;;;;;;2.65;1.33;;;;;;;1.54;100.00;99638.00;5072121;28;20052;-65
2021/11/18 04:19:39;;;;;;;2.00;1.30;;;;;;;1.55;100.00;99631.16;5072439;28;20051;-65
2021/11/18 04:22:07;;;;;;;2.67;1.58;;;;;;;1.60;100.00;99632.66;5072360;28;20041;-65
2021/11/18 04:24:35;;;;;;;1.38;1.15;;;;;;;1.59;100.00;99625.03;5072096;28;20048;-65
2021/11/18 04:27:04;;;;;;;1.70;1.30;;;;;;;1.53;100.00;99624.34;5072329;28;20044;-65
2021/11/18 04:29:31;;;;;;;1.75;1.15;;;;;;;1.51;100.00;99623.56;5072039;28;20048;-65
2021/11/18 04:32:01;;;;;;;1.85;1.20;;;;;;;1.51;100.00;99621.00;5071831;28;20490;-65
2021/11/18 04:34:29;;;;;;;3.10;1.67;;;;;;;1.55;100.00;99619.19;5071767;28;20487;-65
2021/11/18 04:36:58;;;;;;;1.42;1.15;;;;;;;1.49;100.00;99620.25;5071913;28;20064;-65
2021/11/18 04:39:24;;;;;;;2.08;1.65;;;;;;;1.54;100.00;99620.06;5071690;28;20435;-65
2021/11/18 04:41:52;;;;;;;2.45;1.65;;;;;;;1.55;100.00;99615.78;5071819;28;20044;-65
2021/11/18 04:44:19;;;;;;;3.08;1.75;;;;;;;1.56;100.00;99617.44;5071899;28;20049;-65
2021/11/18 04:46:46;;;;;;;;;;;;;;;1.55;100.00;99618.34;5072213;28;20044;-65
2021/11/18 04:49:13;;;;;;;2.08;1.55;;;;;;;1.58;100.00;99610.53;5071607;28;19921;-65
2021/11/18 04:51:40;;;;;;;3.42;1.95;;;;;;;1.55;100.00;99611.50;5071957;28;20052;-65
2021/11/18 04:54:08;;;;;;;2.67;1.77;;;;;;;1.57;100.00;99607.16;5071935;28;20139;-65
2021/11/18 04:56:36;;;;;;;2.70;1.50;;;;;;;1.58;100.00;99606.25;5071747;28;20517;-65
2021/11/18 04:59:04;;;;;;;2.95;1.80;;;;;;;1.58;100.00;99595.16;5071774;28;20094;-65
2021/11/18 05:01:32;;;;;;;3.80;1.98;;;;;;;1.60;100.00;99603.63;5071378;28;20508;-65
2021/11/18 05:03:59;;;;;;;3.88;2.17;;;;;;;1.57;100.00;99598.59;5073780;28;20064;-64
2021/11/18 05:06:26;;;;;;;5.22;2.30;;;;;;;1.59;100.00;99596.81;5075424;28;20059;-65
2021/11/18 05:08:53;;;;;;;4.90;2.35;;;;;;;1.52;100.00;99596.22;5075628;28;20139;-65
2021/11/18 05:11:21;;;;;;;3.17;1.42;;;;;;;1.59;100.00;99584.00;5075290;28;20044;-65
2021/11/18 05:13:48;;;;;;;4.97;2.65;;;;;;;1.54;100.00;99589.28;5075327;28;20064;-65
2021/11/18 05:16:17;;;;;;;2.83;1.67;;;;;;;1.56;100.00;99572.13;5075217;28;20048;-64
2021/11/18 05:18:45;;;;;;;3.28;1.65;;;;;;;1.56;100.00;99569.56;5075592;28;20044;-65
2021/11/18 05:21:13;;;;;;;2.95;2.10;;;;;;;1.54;100.00;99563.66;5075395;28;20391;-66
2021/11/18 05:23:42;;;;;;;5.97;2.40;;;;;;;1.55;100.00;99567.06;5075292;28;20061;-66
2021/11/18 05:26:13;;;;;;;4.82;2.22;;;;;;;1.58;100.00;99562.66;5075229;28;20157;-66
2021/11/18 05:28:42;;;;;;;2.28;1.65;;;;;;;1.65;100.00;99565.84;5075148;28;20072;-67
2021/11/18 05:31:09;;;;;;;3.10;2.08;;;;;;;1.64;100.00;99554.72;5075252;28;20049;-66
2021/11/18 05:33:37;;;;;;;3.75;2.13;;;;;;;1.67;100.00;99549.50;5075443;28;20048;-65
2021/11/18 05:36:05;;;;;;;5.90;2.10;;;;;;;1.70;100.00;99549.38;5074978;28;20503;-66
2021/11/18 05:38:32;;;;;;;5.05;2.25;;;;;;;1.68;100.00;99551.16;5074761;28;20060;-66
2021/11/18 05:40:59;;;;;;;3.15;1.85;;;;;;;1.66;100.00;99541.88;5075292;28;20051;-66
2021/11/18 05:43:30;;;;;;;3.55;2.05;;;;;;;1.72;100.00;99539.06;5074990;28;20045;-67
2021/11/18 05:45:59;;;;;;;5.68;1.98;;;;;;;1.72;100.00;99537.34;5074817;28;20421;-67
2021/11/18 05:48:26;;;;;;;3.10;2.00;;;;;;;1.69;100.00;99531.47;5074906;28;20048;-67
2021/11/18 05:50:55;;;;;;;2.55;1.80;;;;;;;1.70;100.00;99528.03;5074864;28;20045;-66
2021/11/18 05:53:25;;;;;;;5.38;1.98;;;;;;;1.67;100.00;99528.13;5074495;28;20048;-66
2021/11/18 05:55:52;;;;;;;7.00;2.10;;;;;;;1.77;100.00;99524.31;5074929;28;20048;-65
2021/11/18 05:58:20;;;;;;;2.92;1.77;;;;;;;1.77;100.00;99523.50;5074762;28;20059;-65
2021/11/18 06:00:47;;;;;;;3.75;1.77;;;;;;;1.77;100.00;99521.75;5074877;28;20059;-65
2021/11/18 06:03:15;;;;;;;4.78;2.03;;;;;;;1.79;100.00;99514.84;5074302;28;20045;-65
2021/11/18 06:05:42;;;;;;;2.53;1.60;;;;;;;1.80;100.00;99518.25;5074444;28;20059;-68
2021/11/18 06:08:09;;;;;;;;;;;;;;;1.75;100.00;99510.75;5074861;28;20061;-68
2021/11/18 06:10:36;;;;;;;2.95;1.55;;;;;;;1.82;100.00;99504.47;5074387;28;19920;-67
2021/11/18 06:13:04;;;;;;;1.90;1.50;;;;;;;1.81;100.00;99501.97;5074429;28;20052;-67
2021/11/18 06:15:31;;;;;;;6.18;2.08;;;;;;;1.81;100.00;99494.28;5072977;28;20056;-67
2021/11/18 06:17:58;;;;;;;;;;;;;;;1.83;100.00;99493.34;5075033;28;20044;-67
2021/11/18 06:20:27;;;;;;;1.63;1.30;;;;;;;1.85;100.00;99490.69;5074296;28;19928;-67
2021/11/18 06:22:55;;;;;;;2.53;1.60;;;;;;;1.82;100.00;99483.94;5074495;28;20067;-67
2021/11/18 06:25:25;;;;;;;2.50;1.50;;;;;;;1.82;100.00;99483.94;5074152;28;20048;-67
2021/11/18 06:27:52;;;;;;;2.78;1.70;;;;;;;1.81;100.00;99490.00;5074315;28;20053;-66
2021/11/18 06:30:20;;;;;;;;;;;;;;;1.84;100.00;99479.59;5074552;28;20056;-67
2021/11/18 06:32:48;;;;;;;2.17;1.70;;;;;;;1.83;100.00;99477.13;5074163;28;19932;-67
2021/11/18 06:35:17;;;;;;;2.45;1.60;;;;;;;1.86;100.00;99477.81;5073734;28;20482;-67
2021/11/18 06:37:46;;;;;;;2.90;1.60;;;;;;;1.88;100.00;99470.06;5073870;28;20422;-66
2021/11/18 06:40:14;;;;;;;2.60;1.70;;;;;;;1.86;100.00;99472.69;5073404;28;20061;-67
2021/11/18 06:42:42;;;;;;;2.13;1.50;;;;;;;1.77;100.00;99475.59;5073841;28;20049;-67
2021/11/18 06:45:12;;;;;;;3.75;1.60;;;;;;;1.79;100.00;99476.38;5073823;28;20514;-67
2021/11/18 06:47:38;;;;;;;2.03;1.35;;;;;;;1.85;100.00;99473.59;5073734;28;20052;-67
2021/11/18 06:50:07;;;;;;;2.40;1.08;;;;;;;1.91;100.00;99470.78;5073555;28;20049;-67
2021/11/18 06:52:34;;;;;;;2.65;1.30;;;;;;;1.94;100.00;99467.25;5073550;28;20048;-67
2021/11/18 06:55:03;;;;;;;2.05;1.20;;;;;;;1.96;100.00;99463.72;5073903;28;20048;-66
2021/11/18 06:57:30;;;;;;;1.50;1.40;;;;;;;1.94;100.00;99460.38;5073327;28;20052;-67
2021/11/18 06:59:57;;;;;;;5.40;3.20;;;;;;;1.94;100.00;99462.94;5073489;28;20135;-66
2021/11/18 07:02:25;;;;;;;2.95;1.60;;;;;;;1.94;100.00;99459.56;5073469;28;20044;-67
2021/11/18 07:04:53;;;;;;;2.28;1.60;;;;;;;1.94;100.00;99468.06;5073583;28;20052;-66
2021/11/18 07:07:20;;;;;;;2.08;1.50;;;;;;;1.93;100.00;99458.72;5073065;28;20052;-66
2021/11/18 07:09:47;;;;;;;2.40;1.50;;;;;;;1.92;100.00;99453.66;5073300;28;20052;-66
2021/11/18 07:12:19;;;;;;;2.35;1.30;;;;;;;1.91;100.00;99454.56;5072788;28;20513;-66
2021/11/18 07:14:47;;;;;;;2.50;1.65;;;;;;;1.96;100.00;99455.22;5073481;28;20048;-67
2021/11/18 07:17:15;;;;;;;1.30;1.20;;;;;;;1.91;100.00;99446.84;5073212;28;20045;-67
2021/11/18 07:19:42;;;;;;;3.65;1.20;;;;;;;1.85;100.00;99441.94;5073001;28;20053;-66
2021/11/18 07:22:08;;;;;;;1.42;1.20;;;;;;;1.94;100.00;99439.88;5073062;28;20044;-67
2021/11/18 07:24:35;;;;;;;1.73;1.40;;;;;;;2.03;100.00;99441.25;5073285;28;20406;-67
2021/11/18 07:27:03;;;;;;;3.08;1.85;;;;;;;2.08;100.00;99434.19;5073097;28;20060;-67
2021/11/18 07:29:31;;;;;;;;;;;;;;;2.08;100.00;99431.63;5073179;28;20052;-67
2021/11/18 07:31:58;;;;;;;1.90;1.50;;;;;;;2.09;100.00;99427.31;5072819;28;19920;-67
2021/11/18 07:34:25;;;;;;;1.67;1.58;;;;;;;2.07;100.00;99429.94;5072556;28;20053;-67
2021/11/18 07:36:52;;;;;;;2.53;1.50;;;;;;;2.06;100.00;99435.16;5072976;28;20056;-67
2021/11/18 07:39:22;;;;;;;3.10;1.73;;;;;;;2.01;100.00;99439.63;5072459;28;20052;-67
2021/11/18 07:41:49;;;;;;;3.45;1.40;;;;;;;2.02;100.00;99428.47;5072850;28;20045;-67
2021/11/18 07:44:17;;;;;;;2.78;1.80;;;;;;;2.09;100.00;99429.88;5072338;28;20055;-67
2021/11/18 07:46:45;;;;;;;3.42;1.80;;;;;;;2.00;100.00;99427.69;5072534;28;20049;-67
2021/11/18 07:49:13;;;;;;;3.92;1.92;;;;;;;2.08;100.00;99430.75;5072258;28;20056;-67
2021/11/18 07:51:40;;;;;;;1.52;1.23;;;;;;;2.04;100.00;99424.94;5072317;28;20505;-66
2021/11/18 07:54:08;;;;;;;3.10;1.40;;;;;;;2.08;100.00;99428.19;5072814;28;20055;-66
2021/11/18 07:56:37;;;;;;;1.90;1.42;;;;;;;2.03;100.00;99428.41;5072575;28;20048;-66
2021/11/18 07:59:04;;;;;;;2.05;1.35;;;;;;;2.04;100.00;99424.94;5072630;28;20499;-66
2021/11/18 08:01:32;;;;;;;1.48;1.27;;;;;;;2.01;100.00;99422.50;5072100;28;20059;-66
2021/11/18 08:04:00;;;;;;;3.03;1.50;;;;;;;1.99;100.00;99419.16;5072193;28;20048;-67
2021/11/18 08:06:29;;;;;;;3.40;1.98;;;;;;;1.95;100.00;99420.16;5072030;28;20486;-67
2021/11/18 08:08:57;;;;;;;2.25;1.65;;;;;;;2.00;100.00;99414.84;5072412;28;20041;-67
2021/11/18 08:11:26;;;;;;;3.55;2.30;;;;;;;1.98;100.00;99412.38;5071893;28;20490;-67
2021/11/18 08:13:53;;;;;;;2.70;2.00;;;;;;;1.96;100.00;99407.28;5071965;28;20071;-67
2021/11/18 08:16:22;;;;;;;1.88;1.60;;;;;;;1.95;100.00;99400.50;5072217;28;20051;-67
2021/11/18 08:18:49;;;;;;;1.67;1.40;;;;;;;1.89;100.00;99402.47;5072459;28;20048;-67
2021/11/18 08:21:18;;;;;;;2.05;1.50;;;;;;;1.89;100.00;99400.75;5071743;28;20513;-67
2021/11/18 08:23:46;;;;;;;4.65;2.75;;;;;;;1.90;100.00;99402.44;5072230;28;20041;-67
2021/11/18 08:26:16;;;;;;;3.72;2.20;;;;;;;1.88;100.00;99401.66;5072044;28;20044;-67
2021/11/18 08:28:43;;;;;;;5.40;2.83;;;;;;;1.90;100.00;99394.72;5072321;28;20063;-67
2021/11/18 08:31:11;;;;;;;3.55;1.70;;;;;;;1.89;100.00;99394.78;5071772;28;20052;-67
2021/11/18 08:33:39;;;;;;;0.90;0.88;;;;;;;1.88;100.00;99390.56;5071779;28;20376;-66
2021/11/18 08:36:07;;;;;;;1.35;1.20;;;;;;;1.88;100.00;99388.81;5071856;28;20516;-66
2021/11/18 08:38:35;;;;;;;2.38;1.27;;;;;;;1.87;100.00;99387.13;5071421;28;20048;-66
2021/11/18 08:41:05;;;;;;;1.45;1.23;;;;;;;1.89;100.00;99380.22;5071857;28;20052;-67
2021/11/18 08:43:33;;;;;;;2.33;1.08;;;;;;;1.89;100.00;99385.34;5071900;28;20044;-66
2021/11/18 08:46:01;;;;;;;0.98;0.80;;;;;;;1.88;100.00;99377.72;5072025;28;20410;-66
2021/11/18 08:48:27;;;;;;;;;;;;;;;1.86;100.00;99380.34;5072293;28;20051;-66
2021/11/18 08:50:55;;;;;;;0.60;0.60;;;;;;;1.82;100.00;99368.53;5071527;28;19920;-66
2021/11/18 08:53:23;;;;;;;;;;;;;;;1.79;100.00;99375.53;5072078;28;20056;-66
2021/11/18 08:55:52;;;;;;;0.80;0.80;;;;;;;1.80;100.00;99372.06;5072035;28;19928;-67
2021/11/18 08:58:23;;;;;;;1.10;0.90;;;;;;;1.75;100.00;99367.16;5071245;28;20045;-66
2021/11/18 09:00:52;;;;;;;0.90;0.80;;;;;;;1.74;100.00;99365.47;5071768;28;20045;-66
2021/11/18 09:03:22;;;;;;;1.30;0.73;;;;;;;1.71;100.00;99371.53;5071489;28;20139;-66
2021/11/18 09:05:50;;;;;;;1.15;0.85;;;;;;;1.70;100.00;99361.38;5071717;28;20490;-66
2021/11/18 09:08:18;;;;;;;0.80;0.80;;;;;;;1.71;100.00;99360.47;5071711;28;20052;-67
2021/11/18 09:10:46;;;;;;;0.52;0.52;;;;;;;1.74;100.00;99365.47;5071719;28;20052;-67
2021/11/18 09:13:15;;;;;;;0.60;0.60;;;;;;;1.72;100.00;99357.00;5071325;28;20056;-66
2021/11/18 09:15:43;;;;;;;1.17;0.88;;;;;;;1.72;100.00;99357.00;5071626;28;20506;-66
2021/11/18 09:18:11;;;;;;;0.68;0.68;;;;;;;1.71;100.00;99353.59;5071672;28;20060;-66
2021/11/18 09:20:39;;;;;;;0.50;0.50;;;;;;;1.69;100.00;99346.88;5071756;28;20056;-67
2021/11/18 09:23:07;;;;;;;0.60;0.60;;;;;;;1.67;100.00;99349.50;5071445;28;20050;-66
2021/11/18 09:25:40;;;;;;;2.85;0.93;;;;;;;1.63;100.00;99353.06;5071590;28;20269;-67
2021/11/18 09:28:08;;;;;;;0.70;0.70;;;;;;;1.63;100.00;99349.69;5071497;28;20052;-66
2021/11/18 09:30:39;;;;;;;0.85;0.82;;;;;;;1.66;100.00;99347.81;5071156;28;20080;-66
2021/11/18 09:33:07;;;;;;;0.90;0.60;;;;;;;1.66;100.00;99347.00;5071240;28;20045;-66
2021/11/18 09:35:36;;;;;;;0.75;0.70;;;;;;;1.60;100.00;99342.13;5071513;28;20094;-66
2021/11/18 09:38:05;;;;;;;0.85;0.60;;;;;;;1.56;100.00;99341.41;5071428;28;20508;-66
2021/11/18 09:40:39;;;;;;;0.60;0.60;;;;;;;1.53;100.00;99338.97;5071466;28;20049;-67
2021/11/18 09:43:22;;;;;;;0.80;0.80;;;;;;;1.51;100.00;99336.44;5071364;28;20478;-66
2021/11/18 09:45:57;;;;;;;0.70;0.70;;;;;;;1.51;100.00;99341.56;5071580;28;20056;-66
2021/11/18 09:48:40;;;;;;;0.70;0.70;;;;;;;1.49;100.00;99335.72;5071028;28;20416;-66
2021/11/18 09:51:41;;;;;;;0.80;0.80;;;;;;;1.52;100.00;99337.31;5073422;28;20059;-66
2021/11/18 09:54:28;;;;;;;0.70;0.70;;;;;;;1.47;100.00;99331.53;5074766;28;20044;-66
2021/11/18 09:57:16;;;;;;;0.70;0.70;;;;;;;1.47;100.00;99328.97;5075351;28;20044;-66
2021/11/18 09:59:56;;;;;;;0.95;0.95;;;;;;;1.44;100.00;99329.94;5074922;28;20049;-66
2021/11/18 10:02:46;;;;;;;2.97;0.80;;;;;;;1.46;100.00;99324.72;5074406;28;20055;-67
2021/11/18 10:05:16;;;;;;;1.33;1.02;;;;;;;1.41;100.00;99324.06;5074657;28;20067;-66
2021/11/18 10:07:47;;;;;;;1.48;1.30;;;;;;;1.48;100.00;99326.31;5074422;28;20058;-67
2021/11/18 10:10:24;;;;;;;1.00;0.90;;;;;;;1.50;100.00;99327.09;5074618;28;20418;-66
2021/11/18 10:13:13;;;;;;;2.15;1.20;;;;;;;1.50;100.00;99318.59;5074482;28;20059;-67
2021/11/18 10:15:43;;;;;;;0.80;0.80;;;;;;;1.51;100.00;99318.50;5074332;28;20094;-67
2021/11/18 10:18:18;;;;;;;0.82;0.80;;;;;;;1.48;100.00;99315.25;5074089;28;20409;-67
2021/11/18 10:20:47;;;;;;;1.50;1.00;;;;;;;1.55;100.00;99313.28;5074211;28;20053;-67
2021/11/18 10:23:17;;;;;;;2.20;1.00;;;;;;;1.57;100.00;99316.59;5074304;28;20062;-66
2021/11/18 10:25:47;;;;;;;1.95;1.42;;;;;;;1.65;100.00;99310.28;5074215;28;20045;-66
2021/11/18 10:28:49;;;;;;;1.23;1.00;;;;;;;1.61;100.00;99311.28;5073726;28;20053;-67
2021/11/18 10:31:25;;;;;;;1.75;1.00;;;;;;;1.61;100.00;99306.16;5011917;28;20066;-67
2021/11/18 10:34:10;;;;;;;2.22;1.10;;;;;;;1.59;100.00;99305.38;5011940;28;20428;-67
2021/11/18 10:36:51;;;;;;;1.75;1.00;;;;;;;1.55;100.00;99311.53;5051535;28;20045;-67
2021/11/18 10:39:27;;;;;;;1.58;1.08;;;;;;;1.60;100.00;99312.19;5073764;28;20052;-67
2021/11/18 10:41:57;;;;;;;0.80;0.70;;;;;;;1.59;100.00;99310.50;5074104;28;20044;-67
2021/11/18 10:44:28;;;;;;;1.38;0.82;;;;;;;1.59;100.00;99310.50;5073588;28;20505;-67
2021/11/18 10:47:04;;;;;;;1.20;1.10;;;;;;;1.58;100.00;99308.03;5074094;28;20052;-67
2021/11/18 10:49:47;;;;;;;1.90;1.17;;;;;;;1.56;100.00;99308.06;5073441;28;20510;-67
2021/11/18 10:52:26;;;;;;;1.75;1.08;;;;;;;1.70;100.00;99302.41;5073245;28;20560;-67
2021/11/18 10:55:07;;;;;;;1.60;1.50;;;;;;;1.73;100.00;99297.13;5073648;28;20052;-67
2021/11/18 10:57:35;;;;;;;1.75;1.17;;;;;;;1.71;100.00;99291.22;5073401;28;20487;-67
2021/11/18 11:00:16;;;;;;;1.50;1.10;;;;;;;1.57;100.00;99296.09;5073403;28;20090;-67
2021/11/18 11:02:44;;;;;;;1.33;1.00;;;;;;;1.55;100.00;99295.34;5073424;28;20052;-67
2021/11/18 11:05:31;;;;;;;1.50;1.10;;;;;;;1.73;100.00;99289.44;5073163;28;20044;-67
2021/11/18 11:07:59;;;;;;;3.92;1.40;;;;;;;1.52;100.00;99292.00;5073434;28;20053;-67
2021/11/18 11:10:29;;;;;;;2.00;1.10;;;;;;;1.77;100.00;99285.00;5073017;28;20561;-67
2021/11/18 11:13:01;;;;;;;1.38;1.27;;;;;;;1.64;100.00;99282.94;5072946;28;20052;-67
2021/11/18 11:15:58;;;;;;;2.13;1.10;;;;;;;1.61;100.00;99285.63;5072946;28;20056;-67
2021/11/18 11:18:38;;;;;;;1.88;1.20;;;;;;;1.73;100.00;99292.00;5072931;28;20052;-68
2021/11/18 11:21:33;;;;;;;1.80;1.25;;;;;;;1.59;100.00;99291.72;5073120;28;20044;-67
2021/11/18 11:24:24;;;;;;;2.58;1.20;;;;;;;1.36;100.00;99283.25;5072874;28;20045;-67
2021/11/18 11:27:17;;;;;;;1.33;1.10;;;;;;;1.55;100.00;99283.34;5073362;28;20049;-65
2021/11/18 11:29:50;;;;;;;2.05;1.40;;;;;;;1.55;100.00;99279.94;5073366;28;20485;-65
2021/11/18 11:32:23;;;;;;;2.42;1.60;;;;;;;1.61;100.00;99279.69;5072841;28;20098;-65
2021/11/18 11:35:05;;;;;;;3.55;1.48;;;;;;;1.81;100.00;99283.97;5072772;28;20048;-65
2021/11/18 11:37:58;;;;;;;1.92;1.48;;;;;;;1.90;100.00;99269.03;5072505;28;20048;-64
2021/11/18 11:40:34;;;;;;;1.10;1.00;;;;;;;1.94;100.00;99270.56;5072718;28;20509;-64
2021/11/18 11:43:27;;;;;;;2.85;1.20;;;;;;;1.87;100.00;99266.59;5073178;28;20131;-67
2021/11/18 11:46:02;;;;;;;2.67;1.77;;;;;;;1.78;100.00;99273.88;5072980;28;20079;-67
2021/11/18 11:48:48;;;;;;;1.80;1.20;;;;;;;1.85;100.00;99264.97;5072584;28;20048;-67
2021/11/18 11:51:36;;;;;;;3.33;1.48;;;;;;;1.80;100.00;99266.91;5072453;28;20049;-67